createdAt,value
2023-12-23T00:02:40.706Z,2.00
2023-12-23T00:05:27.932Z,3.33
2023-12-23T00:08:15.154Z,3.20
2023-12-23T00:11:02.501Z,3.55
2023-12-23T00:13:49.677Z,2.17
2023-12-23T00:16:36.863Z,2.38
2023-12-23T00:19:24.261Z,2.97
2023-12-23T00:22:11.513Z,3.50
2023-12-23T00:24:58.683Z,2.90
2023-12-23T00:27:45.951Z,3.70
2023-12-23T00:30:33.613Z,1.77
2023-12-23T00:33:20.838Z,1.90
2023-12-23T00:36:08.144Z,2.45
2023-12-23T00:38:55.341Z,1.80
2023-12-23T00:41:43.262Z,2.42
2023-12-23T00:44:30.381Z,2.03
2023-12-23T00:47:17.605Z,3.30
2023-12-23T00:50:07.523Z,2.55
2023-12-23T00:52:55.673Z,1.80
2023-12-23T00:55:42.863Z,2.33
2023-12-23T00:58:30.081Z,2.90
2023-12-23T01:01:17.438Z,2.50
2023-12-23T01:04:05.068Z,3.22
2023-12-23T01:06:52.338Z,3.30
2023-12-23T01:09:39.529Z,2.47
2023-12-23T01:12:26.759Z,2.08
2023-12-23T01:15:14.042Z,3.20
2023-12-23T01:18:01.270Z,3.50
2023-12-23T01:20:48.534Z,3.28
2023-12-23T01:23:36.283Z,1.75
2023-12-23T01:26:23.510Z,2.13
2023-12-23T01:29:10.785Z,2.05
2023-12-23T01:31:57.909Z,2.40
2023-12-23T01:34:45.066Z,3.47
2023-12-23T01:37:32.220Z,3.25
2023-12-23T01:40:19.837Z,1.67
2023-12-23T01:43:06.984Z,2.30
2023-12-23T01:46:00.410Z,1.33
2023-12-23T01:48:47.774Z,2.60
2023-12-23T01:51:35.501Z,2.47
2023-12-23T01:54:25.116Z,2.20
2023-12-23T01:57:12.522Z,1.60
2023-12-23T01:59:59.953Z,2.42
2023-12-23T02:02:48.985Z,2.13
2023-12-23T02:05:36.647Z,3.45
2023-12-23T02:08:24.132Z,1.70
2023-12-23T02:11:22.965Z,3.22
2023-12-23T02:14:23.576Z,2.60
2023-12-23T02:17:11.158Z,2.10
2023-12-23T02:19:58.424Z,1.80
2023-12-23T02:22:45.712Z,2.15
2023-12-23T02:25:33.480Z,1.83
2023-12-23T02:28:23.771Z,1.77
2023-12-23T02:31:12.135Z,2.17
2023-12-23T02:34:00.436Z,0.93
2023-12-23T02:36:47.613Z,2.35
2023-12-23T02:39:36.386Z,2.38
2023-12-23T02:42:23.535Z,2.22
2023-12-23T02:45:10.895Z,2.47
2023-12-23T02:47:58.243Z,1.98
2023-12-23T02:50:45.487Z,3.00
2023-12-23T02:53:32.650Z,2.65
2023-12-23T02:56:19.903Z,2.28
2023-12-23T02:59:07.136Z,3.65
2023-12-23T03:01:54.689Z,3.13
2023-12-23T03:04:43.756Z,1.90
2023-12-23T03:07:30.906Z,1.33
2023-12-23T03:10:19.037Z,2.88
2023-12-23T03:13:08.274Z,2.83
2023-12-23T03:15:55.419Z,2.88
2023-12-23T03:18:42.703Z,2.13
2023-12-23T03:21:30.918Z,3.53
2023-12-23T03:24:18.050Z,1.75
2023-12-23T03:27:06.223Z,2.22
2023-12-23T03:29:53.421Z,1.60
2023-12-23T03:32:40.603Z,3.03
2023-12-23T03:35:28.391Z,3.30
2023-12-23T03:38:15.636Z,2.35
2023-12-23T03:41:02.929Z,3.10
2023-12-23T03:43:50.174Z,3.20
2023-12-23T03:46:37.388Z,4.13
2023-12-23T03:49:24.638Z,3.17
2023-12-23T03:52:11.996Z,1.05
2023-12-23T03:54:59.493Z,3.08
2023-12-23T03:57:46.639Z,2.90
2023-12-23T04:00:34.557Z,4.32
2023-12-23T04:03:21.780Z,2.00
2023-12-23T04:06:08.905Z,3.42
2023-12-23T04:08:56.713Z,4.38
2023-12-23T04:11:43.925Z,3.95
2023-12-23T04:14:31.344Z,2.80
2023-12-23T04:17:18.580Z,3.15
2023-12-23T04:20:08.232Z,2.25
2023-12-23T04:22:55.838Z,2.75
2023-12-23T04:25:43.446Z,1.80
2023-12-23T04:28:30.609Z,3.03
2023-12-23T04:31:18.048Z,3.35
2023-12-23T04:34:05.411Z,2.60
2023-12-23T04:36:53.133Z,2.47
2023-12-23T04:39:40.321Z,3.20
2023-12-23T04:42:27.626Z,3.67
2023-12-23T04:45:15.193Z,3.15
2023-12-23T04:48:03.073Z,2.38
2023-12-23T04:50:51.185Z,4.85
2023-12-23T04:53:38.648Z,3.72
2023-12-23T04:56:25.926Z,3.25
2023-12-23T04:59:13.237Z,3.05
2023-12-23T05:02:00.619Z,2.80
2023-12-23T05:04:47.990Z,2.15
2023-12-23T05:07:35.265Z,5.50
2023-12-23T05:10:22.438Z,3.38
2023-12-23T05:13:09.608Z,2.90
2023-12-23T05:15:57.557Z,3.75
2023-12-23T05:18:45.037Z,2.53
2023-12-23T05:21:32.322Z,4.10
2023-12-23T05:24:19.610Z,2.90
2023-12-23T05:27:06.838Z,2.63
2023-12-23T05:29:56.701Z,3.30
2023-12-23T05:32:45.063Z,2.70
2023-12-23T05:35:32.421Z,2.75
2023-12-23T05:38:20.637Z,3.00
2023-12-23T05:41:10.648Z,2.35
2023-12-23T05:43:57.828Z,7.10
2023-12-23T05:46:45.003Z,3.55
2023-12-23T05:49:32.189Z,3.92
2023-12-23T05:52:19.445Z,4.82
2023-12-23T05:55:07.530Z,3.72
2023-12-23T05:57:54.633Z,3.47
2023-12-23T06:00:41.808Z,2.67
2023-12-23T06:03:29.055Z,2.85
2023-12-23T06:06:16.473Z,4.22
2023-12-23T06:09:04.704Z,2.78
2023-12-23T06:11:52.022Z,4.80
2023-12-23T06:14:41.142Z,3.47
2023-12-23T06:17:28.474Z,2.72
2023-12-23T06:20:15.764Z,2.47
2023-12-23T06:23:02.978Z,5.07
2023-12-23T06:25:50.205Z,5.13
2023-12-23T06:28:37.399Z,4.18
2023-12-23T06:31:24.730Z,3.70
2023-12-23T06:34:12.067Z,2.05
2023-12-23T06:37:00.464Z,3.80
2023-12-23T06:39:47.607Z,6.68
2023-12-23T06:42:34.792Z,8.70
2023-12-23T06:45:22.083Z,4.35
2023-12-23T06:48:09.471Z,7.95
2023-12-23T06:50:56.814Z,7.13
2023-12-23T06:53:44.019Z,9.38
2023-12-23T06:56:31.122Z,5.68
2023-12-23T06:59:18.348Z,6.90
2023-12-23T07:02:05.633Z,9.32
2023-12-23T07:04:52.949Z,9.70
2023-12-23T07:07:40.169Z,9.48
2023-12-23T07:10:27.330Z,9.43
2023-12-23T07:13:14.542Z,10.65
2023-12-23T07:16:02.216Z,9.27
2023-12-23T07:18:49.697Z,12.68
2023-12-23T07:21:36.883Z,9.65
2023-12-23T07:24:24.073Z,13.55
2023-12-23T07:27:11.234Z,14.82
2023-12-23T07:29:58.441Z,11.43
2023-12-23T07:32:45.741Z,17.00
2023-12-23T07:35:32.982Z,16.88
2023-12-23T07:38:20.264Z,21.20
2023-12-23T07:41:08.857Z,24.33
2023-12-23T07:43:56.132Z,22.08
2023-12-23T07:46:43.417Z,18.50
2023-12-23T07:49:32.962Z,22.85
2023-12-23T07:52:20.955Z,19.98
2023-12-23T07:55:09.050Z,23.92
2023-12-23T07:57:56.277Z,22.85
2023-12-23T08:00:43.852Z,23.33
2023-12-23T08:03:31.066Z,20.98
2023-12-23T08:06:19.909Z,26.48
2023-12-23T08:09:08.169Z,23.58
2023-12-23T08:11:55.362Z,20.98
2023-12-23T08:14:42.501Z,25.63
2023-12-23T08:17:30.033Z,18.63
2023-12-23T08:20:17.356Z,20.23
2023-12-23T08:23:04.951Z,21.13
2023-12-23T08:25:52.170Z,24.92
2023-12-23T08:28:39.345Z,23.75
2023-12-23T08:31:26.593Z,21.25
2023-12-23T08:34:14.057Z,24.63
2023-12-23T08:37:01.359Z,17.58
2023-12-23T08:39:48.530Z,16.70
2023-12-23T08:42:35.725Z,19.00
2023-12-23T08:45:22.974Z,18.27
2023-12-23T08:48:10.321Z,18.52
2023-12-23T08:50:57.509Z,19.60
2023-12-23T08:53:44.711Z,15.85
2023-12-23T08:56:31.950Z,20.63
2023-12-23T08:59:19.178Z,14.25
2023-12-23T09:02:06.957Z,21.13
2023-12-23T09:04:54.189Z,18.25
2023-12-23T09:07:41.565Z,14.93
2023-12-23T09:10:28.859Z,12.25
2023-12-23T09:13:16.196Z,15.65
2023-12-23T09:16:07.198Z,12.38
2023-12-23T09:18:54.448Z,17.27
2023-12-23T09:21:41.669Z,13.23
2023-12-23T09:24:28.827Z,13.85
2023-12-23T09:27:17.295Z,13.93
2023-12-23T09:30:06.432Z,14.23
2023-12-23T09:32:53.774Z,12.15
2023-12-23T09:35:41.139Z,11.73
2023-12-23T09:38:28.504Z,11.93
2023-12-23T09:41:15.871Z,12.18
2023-12-23T09:44:03.586Z,14.18
2023-12-23T09:46:51.894Z,9.95
2023-12-23T09:49:40.707Z,11.90
2023-12-23T09:52:30.738Z,11.77
2023-12-23T09:55:18.891Z,11.82
2023-12-23T09:58:06.056Z,10.02
2023-12-23T10:00:54.106Z,11.43
2023-12-23T10:03:41.378Z,15.18
2023-12-23T10:06:28.658Z,11.15
2023-12-23T10:09:16.486Z,10.55
2023-12-23T10:12:04.062Z,9.95
2023-12-23T10:14:51.385Z,10.07
2023-12-23T10:17:38.739Z,8.88
2023-12-23T10:20:27.567Z,8.68
2023-12-23T10:23:15.022Z,8.23
2023-12-23T10:26:03.974Z,10.50
2023-12-23T10:29:01.780Z,7.50
2023-12-23T10:31:51.830Z,6.30
2023-12-23T10:34:51.760Z,10.55
2023-12-23T10:37:42.023Z,8.30
2023-12-23T10:40:30.476Z,6.75
2023-12-23T10:43:19.839Z,7.57
2023-12-23T10:46:08.997Z,6.35
2023-12-23T10:48:56.798Z,6.82
2023-12-23T10:51:46.165Z,8.82
2023-12-23T10:54:37.560Z,6.97
2023-12-23T10:57:26.146Z,7.63
2023-12-23T11:00:14.722Z,6.50
2023-12-23T11:03:04.934Z,6.45
2023-12-23T11:05:54.731Z,8.45
2023-12-23T11:08:43.284Z,6.53
2023-12-23T11:11:32.591Z,5.03
2023-12-23T11:14:22.389Z,6.43
2023-12-23T11:17:28.945Z,5.57
2023-12-23T11:20:42.312Z,6.65
2023-12-23T11:23:30.057Z,5.47
2023-12-23T11:26:54.036Z,8.07
2023-12-23T11:29:41.359Z,7.18
2023-12-23T11:32:38.399Z,5.85
2023-12-23T11:35:25.836Z,5.03
2023-12-23T11:38:13.215Z,5.65
2023-12-23T11:41:01.157Z,5.18
2023-12-23T11:43:51.034Z,6.00
2023-12-23T11:46:41.814Z,5.10
2023-12-23T11:49:29.304Z,5.07
2023-12-23T11:52:16.613Z,6.05
2023-12-23T11:55:04.878Z,7.25
2023-12-23T11:57:52.311Z,5.63
2023-12-23T12:00:41.890Z,6.50
2023-12-23T12:03:29.296Z,5.88
2023-12-23T12:06:17.288Z,4.88
2023-12-23T12:09:07.633Z,5.20
2023-12-23T12:11:54.838Z,4.22
2023-12-23T12:14:42.118Z,6.40
2023-12-23T12:17:29.476Z,4.03
2023-12-23T12:20:16.915Z,5.70
2023-12-23T12:23:04.901Z,4.85
2023-12-23T12:25:52.728Z,6.07
2023-12-23T12:28:40.273Z,3.20
2023-12-23T12:31:27.467Z,4.25
2023-12-23T12:34:14.721Z,5.15
2023-12-23T12:37:03.720Z,4.10
2023-12-23T12:39:51.003Z,5.30
2023-12-23T12:42:39.680Z,2.67
2023-12-23T12:45:27.377Z,3.80
2023-12-23T12:48:14.580Z,3.78
2023-12-23T12:51:02.471Z,4.15
2023-12-23T12:53:50.189Z,3.78
2023-12-23T12:56:37.395Z,3.08
2023-12-23T12:59:24.692Z,3.83
2023-12-23T13:02:14.109Z,3.55
2023-12-23T13:05:01.395Z,5.47
2023-12-23T13:07:49.410Z,5.15
2023-12-23T13:10:36.747Z,4.10
2023-12-23T13:13:24.180Z,3.20
2023-12-23T13:16:14.457Z,3.10
2023-12-23T13:19:01.910Z,3.15
2023-12-23T13:21:49.915Z,3.70
2023-12-23T13:24:37.062Z,2.58
2023-12-23T13:27:24.253Z,5.38
2023-12-23T13:30:11.662Z,2.58
2023-12-23T13:33:00.139Z,3.55
2023-12-23T13:35:47.448Z,2.55
2023-12-23T13:38:34.582Z,2.65
2023-12-23T13:41:29.338Z,5.80
2023-12-23T13:44:16.645Z,3.33
2023-12-23T13:47:05.371Z,3.67
2023-12-23T13:49:52.918Z,3.05
2023-12-23T13:52:42.873Z,4.07
2023-12-23T13:55:30.000Z,3.10
2023-12-23T13:58:17.703Z,4.03
2023-12-23T14:01:05.575Z,3.28
2023-12-23T14:03:52.871Z,2.63
2023-12-23T14:06:40.158Z,1.92
2023-12-23T14:09:27.467Z,3.22
2023-12-23T14:12:14.692Z,4.72
2023-12-23T14:15:01.955Z,1.70
2023-12-23T14:17:49.201Z,3.35
2023-12-23T14:20:37.166Z,4.78
2023-12-23T14:23:24.376Z,1.67
2023-12-23T14:26:11.691Z,3.90
2023-12-23T14:28:59.238Z,4.10
2023-12-23T14:31:49.592Z,1.83
2023-12-23T14:34:36.821Z,1.52
2023-12-23T14:37:27.859Z,3.20
2023-12-23T14:40:19.866Z,3.80
2023-12-23T14:43:07.191Z,3.60
2023-12-23T14:45:54.344Z,4.53
2023-12-23T14:48:41.541Z,4.07
2023-12-23T14:51:29.035Z,3.33
2023-12-23T14:54:16.262Z,2.22
2023-12-23T14:57:03.855Z,2.72
2023-12-23T14:59:50.971Z,4.25
2023-12-23T15:02:38.434Z,2.40
2023-12-23T15:05:25.851Z,1.73
2023-12-23T15:08:13.180Z,3.22
2023-12-23T15:11:00.646Z,3.15
2023-12-23T15:13:47.861Z,2.85
2023-12-23T15:16:35.084Z,3.58
2023-12-23T15:19:22.315Z,2.08
2023-12-23T15:22:10.373Z,1.80
2023-12-23T15:24:57.589Z,2.03
2023-12-23T15:27:44.808Z,1.70
2023-12-23T15:30:31.990Z,2.92
2023-12-23T15:33:19.334Z,3.88
2023-12-23T15:36:08.316Z,1.88
2023-12-23T15:38:55.657Z,3.95
2023-12-23T15:41:42.994Z,3.80
2023-12-23T15:44:34.210Z,1.98
2023-12-23T15:47:21.563Z,2.67
2023-12-23T15:50:09.718Z,2.42
2023-12-23T15:52:56.996Z,2.22
2023-12-23T15:55:44.343Z,2.85
2023-12-23T15:58:31.752Z,2.63
2023-12-23T16:01:19.154Z,2.97
2023-12-23T16:04:06.402Z,2.80
2023-12-23T16:06:53.806Z,1.70
2023-12-23T16:09:40.994Z,2.95
2023-12-23T16:12:28.190Z,1.13
2023-12-23T16:15:15.965Z,2.53
2023-12-23T16:18:04.736Z,2.35
2023-12-23T16:20:53.317Z,1.20
2023-12-23T16:23:40.795Z,2.03
2023-12-23T16:26:28.140Z,2.40
2023-12-23T16:29:15.381Z,2.97
2023-12-23T16:32:04.360Z,2.25
2023-12-23T16:34:53.081Z,4.28
2023-12-23T16:37:41.524Z,1.92
2023-12-23T16:40:28.669Z,3.28
2023-12-23T16:43:15.820Z,2.70
2023-12-23T16:46:03.233Z,2.33
2023-12-23T16:48:50.681Z,2.42
2023-12-23T16:51:37.886Z,2.95
2023-12-23T16:54:25.174Z,2.25
2023-12-23T16:57:12.488Z,3.40
2023-12-23T17:00:00.160Z,1.70
2023-12-23T17:02:48.015Z,2.22
2023-12-23T17:05:35.347Z,2.40
2023-12-23T17:08:22.652Z,2.65
2023-12-23T17:11:09.904Z,2.38
2023-12-23T17:13:57.598Z,2.20
2023-12-23T17:16:45.129Z,3.33
2023-12-23T17:19:32.532Z,2.65
2023-12-23T17:22:19.700Z,3.42
2023-12-23T17:25:07.297Z,2.20
2023-12-23T17:27:54.549Z,2.97
2023-12-23T17:30:41.745Z,2.20
2023-12-23T17:33:29.318Z,2.28
2023-12-23T17:36:16.726Z,2.75
2023-12-23T17:39:04.110Z,2.30
2023-12-23T17:41:51.605Z,2.03
2023-12-23T17:44:38.826Z,2.58
2023-12-23T17:47:26.440Z,1.85
2023-12-23T17:50:19.838Z,3.28
2023-12-23T17:53:07.132Z,1.58
2023-12-23T17:55:54.351Z,3.63
2023-12-23T17:58:42.934Z,3.00
2023-12-23T18:01:30.502Z,2.80
2023-12-23T18:04:17.782Z,3.00
2023-12-23T18:07:04.988Z,1.75
2023-12-23T18:09:52.433Z,1.58
2023-12-23T18:12:39.645Z,1.95
2023-12-23T18:15:26.788Z,2.40
2023-12-23T18:18:14.231Z,3.38
2023-12-23T18:21:01.425Z,1.52
2023-12-23T18:23:48.598Z,3.67
2023-12-23T18:26:35.908Z,3.42
2023-12-23T18:29:23.170Z,3.63
2023-12-23T18:32:10.358Z,2.15
2023-12-23T18:34:57.670Z,2.60
2023-12-23T18:37:44.910Z,2.20
2023-12-23T18:40:33.317Z,2.33
2023-12-23T18:43:20.462Z,3.15
2023-12-23T18:46:07.760Z,3.03
2023-12-23T18:48:55.047Z,1.58
2023-12-23T18:51:42.241Z,2.20
2023-12-23T18:54:29.411Z,2.90
2023-12-23T18:57:16.608Z,1.83
2023-12-23T19:00:04.367Z,2.33
2023-12-23T19:02:51.882Z,4.60
2023-12-23T19:05:39.631Z,2.20
2023-12-23T19:08:27.304Z,2.13
2023-12-23T19:11:15.282Z,3.00
2023-12-23T19:14:03.697Z,2.92
2023-12-23T19:16:50.996Z,2.17
2023-12-23T19:19:38.402Z,1.75
2023-12-23T19:22:25.591Z,2.08
2023-12-23T19:25:12.850Z,2.72
2023-12-23T19:28:00.180Z,2.03
2023-12-23T19:30:47.455Z,4.07
2023-12-23T19:33:35.221Z,1.27
2023-12-23T19:36:22.490Z,2.10
2023-12-23T19:39:10.800Z,2.97
2023-12-23T19:41:58.010Z,1.73
2023-12-23T19:44:45.278Z,1.52
2023-12-23T19:47:33.639Z,3.10
2023-12-23T19:50:21.721Z,3.55
2023-12-23T19:53:09.052Z,2.00
2023-12-23T19:55:56.715Z,2.33
2023-12-23T19:58:43.909Z,2.10
2023-12-23T20:01:31.984Z,2.85
2023-12-23T20:04:19.437Z,2.15
2023-12-23T20:07:06.857Z,2.70
2023-12-23T20:09:54.146Z,3.42
2023-12-23T20:12:41.898Z,4.47
2023-12-23T20:15:29.166Z,1.80
2023-12-23T20:18:16.435Z,4.07
2023-12-23T20:21:04.292Z,2.53
2023-12-23T20:23:52.596Z,2.83
2023-12-23T20:26:39.819Z,2.30
2023-12-23T20:29:26.963Z,2.33
2023-12-23T20:32:14.421Z,3.28
2023-12-23T20:35:01.759Z,2.45
2023-12-23T20:37:48.954Z,2.22
2023-12-23T20:40:36.087Z,2.58
2023-12-23T20:43:23.337Z,3.75
2023-12-23T20:46:11.852Z,3.00
2023-12-23T20:48:59.304Z,1.48
2023-12-23T20:51:46.891Z,3.63
2023-12-23T20:54:34.801Z,3.03
2023-12-23T20:57:22.008Z,2.25
2023-12-23T21:00:10.121Z,1.60
2023-12-23T21:02:57.388Z,2.75
2023-12-23T21:05:44.988Z,3.67
2023-12-23T21:08:32.367Z,2.55
2023-12-23T21:11:20.465Z,2.33
2023-12-23T21:14:07.839Z,2.25
2023-12-23T21:16:55.359Z,2.88
2023-12-23T21:19:42.557Z,2.70
2023-12-23T21:22:30.299Z,2.70
2023-12-23T21:25:17.530Z,3.75
2023-12-23T21:28:07.980Z,3.58
2023-12-23T21:30:57.093Z,3.10
2023-12-23T21:33:44.447Z,3.03
2023-12-23T21:36:34.822Z,4.68
2023-12-23T21:39:22.034Z,2.17
2023-12-23T21:42:09.170Z,3.05
2023-12-23T21:44:56.318Z,3.28
2023-12-23T21:47:48.446Z,4.00
2023-12-23T21:50:35.797Z,2.42
2023-12-23T21:53:24.307Z,3.08
2023-12-23T21:56:11.526Z,3.17
2023-12-23T21:58:58.703Z,2.47
2023-12-23T22:01:45.927Z,3.53
2023-12-23T22:04:33.128Z,5.07
2023-12-23T22:07:21.576Z,2.75
2023-12-23T22:10:11.451Z,3.08
2023-12-23T22:12:58.620Z,1.80
2023-12-23T22:15:45.740Z,3.83
2023-12-23T22:18:33.060Z,3.15
2023-12-23T22:21:20.257Z,4.28
2023-12-23T22:24:07.904Z,3.70
2023-12-23T22:26:55.168Z,2.35
2023-12-23T22:29:42.297Z,6.53
2023-12-23T22:32:29.547Z,2.70
2023-12-23T22:35:16.818Z,2.88
2023-12-23T22:38:04.779Z,4.93
2023-12-23T22:40:52.228Z,6.07
2023-12-23T22:43:39.428Z,6.85
2023-12-23T22:46:26.638Z,14.77
2023-12-23T22:49:13.841Z,10.43
2023-12-23T22:52:01.071Z,9.07
2023-12-23T22:54:48.246Z,8.60
2023-12-23T22:57:35.326Z,9.10
2023-12-23T23:00:25.188Z,7.00
2023-12-23T23:03:12.482Z,8.32
2023-12-23T23:06:00.901Z,9.50
2023-12-23T23:08:48.239Z,9.13
2023-12-23T23:11:35.548Z,8.50
2023-12-23T23:14:22.820Z,10.30
2023-12-23T23:17:10.003Z,8.90
2023-12-23T23:19:57.231Z,6.45
2023-12-23T23:22:44.424Z,7.95
2023-12-23T23:25:31.549Z,7.78
2023-12-23T23:28:19.289Z,6.70
2023-12-23T23:31:06.854Z,7.50
2023-12-23T23:33:54.092Z,9.02
2023-12-23T23:36:41.264Z,5.75
2023-12-23T23:39:28.376Z,7.15
2023-12-23T23:42:15.586Z,6.50
2023-12-23T23:45:02.696Z,8.48
2023-12-23T23:47:50.690Z,8.07
2023-12-23T23:50:37.909Z,5.25
2023-12-23T23:53:25.229Z,7.20
2023-12-23T23:56:16.458Z,6.38
2023-12-23T23:59:05.555Z,5.28
